Portada
METAR-TAF:

METAR-TAF

Aeroports :

Grider Field

Pine Bluff, Arkansas, Estats Units d'Amèrica

latitud: 34-10-30N, longitud: 091-56-05W, altitud: 63 m

Observació

L'informe es va fer fa 26 minuts, a les 12:53 UTC
Vent 6 kt del Nord
Temperatura 19°C
Humitat 64%
Pressió 1021 hPa
Visibilitat: 16.1 km
Cel clar

METAR: KPBF 301253Z AUTO 36006KT 10SM CLR 19/12 A3016 RMK AO2 SLP212 T01940122

Hora: 08:19 (13:19 UTC)

Pronòstic

L'informe es va fer fa 1 hora i 59 minuts, a les 11:20 UTC
Pronòstic vàlid del 30 a les 12 UTC al 31 a les 12 UTC
Vent 6 kt amb direcció variable
Visibilitat: 10 km
Cel clar

TAF: KPBF 301120Z 3012/3112 VRB06KT P6SM SKC

Observacions i pronòstics meteorològics de més de 4000 aeroports (METAR i TAF).

Les estacions disponibles són els punts grocs i vermells al mapa.

Posi el ratolí al punt desitjat per veure el nom de l'estació.

Feu clic per veure les observacions i els pronòstics meteorològics.

Per canviar el mapa: feu clic els botons verds amb una creu de color negre per apropar; al botó verd amb un guió per allunyar la imatge; o en les fletxes verdes per a mapes adjacents.


METAR-TAF: